| Date | Time | Temp. (oF) | Dew Point (oF) | Rel. Hum. (%) | Press. (in.) | Wind Dir. | Wind Speed (mph) | Hourly Rainfall (in.) |
|
|---|---|---|---|---|---|---|---|---|---|
| 1 | 06/26 | 00:00 | 75 | 67 | 77 | 30.11 | SSW | 2 | 0.00 |
| 2 | 06/25 | 23:00 | 76 | 67 | 76 | 30.10 | SSW | 2 | 0.00 |
| 3 | 06/25 | 22:00 | 78 | 67 | 70 | 30.09 | S | 3 | 0.00 |
| 4 | 06/25 | 21:00 | 80 | 66 | 63 | 30.07 | S | 5 | 0.00 |
| 5 | 06/25 | 20:00 | 82 | 66 | 60 | 30.06 | S | 6 | 0.00 |
| 6 | 06/25 | 19:00 | 85 | 69 | 61 | 30.06 | S | 6 | 0.00 |
| 7 | 06/25 | 18:00 | 87 | 71 | 60 | 30.06 | S | 9 | 0.00 |
| 8 | 06/25 | 17:00 | 91 | 70 | 51 | 30.06 | S | 7 | 0.00 |
| 9 | 06/25 | 16:00 | 91 | 69 | 50 | 30.07 | SSE | 7 | 0.00 |
| 10 | 06/25 | 15:00 | 90 | 68 | 50 | 30.07 | SSW | 10 | 0.00 |
| 11 | 06/25 | 14:00 | 90 | 70 | 53 | 30.09 | S | 6 | 0.00 |
| 12 | 06/25 | 13:00 | 88 | 69 | 55 | 30.10 | SE | 5 | 0.00 |
| 13 | 06/25 | 12:00 | 86 | 68 | 57 | 30.12 | S | 5 | 0.00 |
| 14 | 06/25 | 11:00 | 82 | 68 | 64 | 30.12 | S | 6 | 0.00 |
| 15 | 06/25 | 10:00 | 78 | 66 | 69 | 30.14 | S | 3 | 0.00 |
| 16 | 06/25 | 09:00 | 74 | 65 | 76 | 30.15 | W | 1 | 0.00 |
| 17 | 06/25 | 08:00 | 70 | 65 | 85 | 30.16 | S | 3 | 0.00 |
| 18 | 06/25 | 07:00 | 67 | 64 | 91 | 30.15 | SSE | 1 | 0.00 |
| 19 | 06/25 | 06:00 | 66 | 62 | 89 | 30.14 | SE | 0 | 0.00 |
| 20 | 06/25 | 05:00 | 68 | 63 | 86 | 30.13 | SE | 0 | 0.00 |
| 21 | 06/25 | 04:00 | 70 | 64 | 82 | 30.13 | S | 1 | 0.00 |
| 22 | 06/25 | 03:00 | 71 | 64 | 81 | 30.14 | SSW | 3 | 0.00 |
| 23 | 06/25 | 02:00 | 72 | 65 | 80 | 30.13 | SSW | 5 | 0.00 |
| 24 | 06/25 | 01:00 | 72 | 65 | 79 | 30.13 | S | 7 | 0.00 |